sensor_id;sensor_type;location;lat;lon;timestamp;P1;durP1;ratioP1;P2;durP2;ratioP2
12780;SDS011;6454;43.304;24.344;2023-03-01T00:00:00;12.67;;;10.13;;
12780;SDS011;6454;43.304;24.344;2023-03-01T00:02:28;13.50;;;10.80;;
12780;SDS011;6454;43.304;24.344;2023-03-01T00:04:54;12.77;;;10.27;;
12780;SDS011;6454;43.304;24.344;2023-03-01T00:07:21;13.27;;;10.73;;
12780;SDS011;6454;43.304;24.344;2023-03-01T00:09:48;16.97;;;11.33;;
12780;SDS011;6454;43.304;24.344;2023-03-01T00:12:16;13.07;;;10.87;;
12780;SDS011;6454;43.304;24.344;2023-03-01T00:14:43;13.90;;;11.57;;
12780;SDS011;6454;43.304;24.344;2023-03-01T00:17:10;14.43;;;11.20;;
12780;SDS011;6454;43.304;24.344;2023-03-01T00:19:36;15.03;;;11.37;;
12780;SDS011;6454;43.304;24.344;2023-03-01T00:22:03;14.10;;;11.40;;
12780;SDS011;6454;43.304;24.344;2023-03-01T00:24:30;14.77;;;10.50;;
12780;SDS011;6454;43.304;24.344;2023-03-01T00:26:57;12.47;;;11.17;;
12780;SDS011;6454;43.304;24.344;2023-03-01T00:29:25;13.93;;;10.77;;
12780;SDS011;6454;43.304;24.344;2023-03-01T00:31:52;13.77;;;11.63;;
12780;SDS011;6454;43.304;24.344;2023-03-01T00:34:19;14.30;;;11.23;;
12780;SDS011;6454;43.304;24.344;2023-03-01T00:36:46;14.77;;;12.00;;
12780;SDS011;6454;43.304;24.344;2023-03-01T00:39:14;13.40;;;11.47;;
12780;SDS011;6454;43.304;24.344;2023-03-01T00:41:41;16.37;;;12.07;;
12780;SDS011;6454;43.304;24.344;2023-03-01T00:44:08;15.00;;;11.67;;
12780;SDS011;6454;43.304;24.344;2023-03-01T00:46:36;14.73;;;12.00;;
12780;SDS011;6454;43.304;24.344;2023-03-01T00:49:04;14.17;;;11.30;;
12780;SDS011;6454;43.304;24.344;2023-03-01T00:51:31;15.77;;;11.97;;
12780;SDS011;6454;43.304;24.344;2023-03-01T00:53:58;14.07;;;11.80;;
12780;SDS011;6454;43.304;24.344;2023-03-01T00:56:27;14.37;;;11.83;;
12780;SDS011;6454;43.304;24.344;2023-03-01T00:58:54;13.60;;;11.73;;
12780;SDS011;6454;43.304;24.344;2023-03-01T01:01:22;15.53;;;12.53;;
12780;SDS011;6454;43.304;24.344;2023-03-01T01:03:54;16.63;;;12.60;;
12780;SDS011;6454;43.304;24.344;2023-03-01T01:06:23;15.40;;;11.97;;
12780;SDS011;6454;43.304;24.344;2023-03-01T01:08:52;15.07;;;12.37;;
12780;SDS011;6454;43.304;24.344;2023-03-01T01:11:20;13.67;;;11.17;;
12780;SDS011;6454;43.304;24.344;2023-03-01T01:13:48;13.70;;;11.10;;
12780;SDS011;6454;43.304;24.344;2023-03-01T01:16:15;14.40;;;11.23;;
12780;SDS011;6454;43.304;24.344;2023-03-01T01:18:43;13.87;;;11.20;;
12780;SDS011;6454;43.304;24.344;2023-03-01T01:21:13;13.33;;;11.43;;
12780;SDS011;6454;43.304;24.344;2023-03-01T01:23:41;14.60;;;11.57;;
12780;SDS011;6454;43.304;24.344;2023-03-01T01:26:10;13.20;;;11.03;;
12780;SDS011;6454;43.304;24.344;2023-03-01T01:28:38;13.40;;;10.50;;
12780;SDS011;6454;43.304;24.344;2023-03-01T01:31:06;13.60;;;11.43;;
12780;SDS011;6454;43.304;24.344;2023-03-01T01:33:33;14.03;;;10.20;;
12780;SDS011;6454;43.304;24.344;2023-03-01T01:36:00;14.07;;;11.10;;
12780;SDS011;6454;43.304;24.344;2023-03-01T01:38:28;12.43;;;10.57;;
12780;SDS011;6454;43.304;24.344;2023-03-01T01:40:55;12.30;;;10.23;;
12780;SDS011;6454;43.304;24.344;2023-03-01T01:43:22;13.07;;;11.00;;
12780;SDS011;6454;43.304;24.344;2023-03-01T01:45:50;12.50;;;10.90;;
12780;SDS011;6454;43.304;24.344;2023-03-01T01:48:20;11.80;;;10.27;;
12780;SDS011;6454;43.304;24.344;2023-03-01T01:50:50;15.20;;;11.17;;
12780;SDS011;6454;43.304;24.344;2023-03-01T01:53:21;13.73;;;11.30;;
12780;SDS011;6454;43.304;24.344;2023-03-01T01:55:53;13.47;;;10.93;;
12780;SDS011;6454;43.304;24.344;2023-03-01T01:58:22;12.87;;;10.77;;
12780;SDS011;6454;43.304;24.344;2023-03-01T02:00:52;13.13;;;11.00;;
12780;SDS011;6454;43.304;24.344;2023-03-01T02:03:22;11.97;;;10.33;;
12780;SDS011;6454;43.304;24.344;2023-03-01T02:05:55;12.53;;;10.43;;
12780;SDS011;6454;43.304;24.344;2023-03-01T02:08:27;11.27;;;9.60;;
12780;SDS011;6454;43.304;24.344;2023-03-01T02:10:58;14.20;;;11.03;;
12780;SDS011;6454;43.304;24.344;2023-03-01T02:13:26;12.63;;;10.40;;
12780;SDS011;6454;43.304;24.344;2023-03-01T02:15:53;12.67;;;10.33;;
12780;SDS011;6454;43.304;24.344;2023-03-01T02:18:21;12.30;;;10.33;;
12780;SDS011;6454;43.304;24.344;2023-03-01T02:20:53;12.43;;;9.97;;
12780;SDS011;6454;43.304;24.344;2023-03-01T02:23:29;14.03;;;10.67;;
12780;SDS011;6454;43.304;24.344;2023-03-01T02:25:58;12.80;;;10.57;;
12780;SDS011;6454;43.304;24.344;2023-03-01T02:28:34;12.73;;;11.27;;
12780;SDS011;6454;43.304;24.344;2023-03-01T02:31:03;12.07;;;10.43;;
12780;SDS011;6454;43.304;24.344;2023-03-01T02:33:49;14.13;;;11.50;;
12780;SDS011;6454;43.304;24.344;2023-03-01T02:36:19;13.10;;;10.23;;
12780;SDS011;6454;43.304;24.344;2023-03-01T02:38:48;13.90;;;11.47;;
12780;SDS011;6454;43.304;24.344;2023-03-01T02:41:18;12.47;;;10.37;;
12780;SDS011;6454;43.304;24.344;2023-03-01T02:43:49;14.80;;;11.60;;
12780;SDS011;6454;43.304;24.344;2023-03-01T02:46:17;13.33;;;11.10;;
12780;SDS011;6454;43.304;24.344;2023-03-01T02:48:46;15.27;;;11.43;;
12780;SDS011;6454;43.304;24.344;2023-03-01T09:36:16;18.85;;;14.30;;
12780;SDS011;6454;43.304;24.344;2023-03-01T09:38:45;19.20;;;14.68;;
12780;SDS011;6454;43.304;24.344;2023-03-01T09:41:17;18.13;;;13.83;;
12780;SDS011;6454;43.304;24.344;2023-03-01T09:44:10;18.77;;;15.75;;
12780;SDS011;6454;43.304;24.344;2023-03-01T09:46:43;19.97;;;16.47;;
12780;SDS011;6454;43.304;24.344;2023-03-01T09:49:12;20.95;;;17.00;;
12780;SDS011;6454;43.304;24.344;2023-03-01T09:51:47;17.20;;;13.65;;
12780;SDS011;6454;43.304;24.344;2023-03-01T09:54:21;17.57;;;13.23;;
12780;SDS011;6454;43.304;24.344;2023-03-01T09:56:52;18.90;;;13.67;;
12780;SDS011;6454;43.304;24.344;2023-03-01T09:59:26;22.00;;;16.30;;
12780;SDS011;6454;43.304;24.344;2023-03-01T10:01:59;19.55;;;13.93;;
12780;SDS011;6454;43.304;24.344;2023-03-01T10:04:34;16.55;;;13.25;;
12780;SDS011;6454;43.304;24.344;2023-03-01T10:07:16;18.05;;;13.93;;
12780;SDS011;6454;43.304;24.344;2023-03-01T10:09:53;19.90;;;14.23;;
12780;SDS011;6454;43.304;24.344;2023-03-01T10:12:20;18.77;;;14.75;;
12780;SDS011;6454;43.304;24.344;2023-03-01T10:14:53;17.63;;;13.73;;
12780;SDS011;6454;43.304;24.344;2023-03-01T10:17:28;19.52;;;15.07;;
12780;SDS011;6454;43.304;24.344;2023-03-01T10:20:16;22.98;;;17.52;;
12780;SDS011;6454;43.304;24.344;2023-03-01T10:22:47;18.87;;;13.90;;
12780;SDS011;6454;43.304;24.344;2023-03-01T10:25:30;18.73;;;14.37;;
12780;SDS011;6454;43.304;24.344;2023-03-01T10:28:10;18.73;;;14.13;;
12780;SDS011;6454;43.304;24.344;2023-03-01T10:30:43;19.40;;;14.63;;
12780;SDS011;6454;43.304;24.344;2023-03-01T10:33:14;19.73;;;14.57;;
12780;SDS011;6454;43.304;24.344;2023-03-01T10:35:45;17.98;;;13.38;;
12780;SDS011;6454;43.304;24.344;2023-03-01T10:38:15;16.33;;;13.70;;
12780;SDS011;6454;43.304;24.344;2023-03-01T10:40:53;18.80;;;14.03;;
12780;SDS011;6454;43.304;24.344;2023-03-01T10:43:23;18.77;;;14.43;;
12780;SDS011;6454;43.304;24.344;2023-03-01T10:45:51;20.00;;;14.43;;
12780;SDS011;6454;43.304;24.344;2023-03-01T10:48:19;18.90;;;14.38;;
12780;SDS011;6454;43.304;24.344;2023-03-01T10:50:50;19.63;;;14.27;;
12780;SDS011;6454;43.304;24.344;2023-03-01T10:53:33;19.43;;;14.43;;
12780;SDS011;6454;43.304;24.344;2023-03-01T10:56:04;19.37;;;14.57;;
12780;SDS011;6454;43.304;24.344;2023-03-01T10:58:34;18.87;;;14.77;;
12780;SDS011;6454;43.304;24.344;2023-03-01T11:01:03;20.10;;;14.52;;
12780;SDS011;6454;43.304;24.344;2023-03-01T11:03:32;17.23;;;13.70;;
12780;SDS011;6454;43.304;24.344;2023-03-01T11:06:02;18.98;;;15.82;;
12780;SDS011;6454;43.304;24.344;2023-03-01T11:08:34;19.87;;;15.67;;
12780;SDS011;6454;43.304;24.344;2023-03-01T11:11:03;18.07;;;14.13;;
12780;SDS011;6454;43.304;24.344;2023-03-01T11:13:54;17.93;;;13.70;;
12780;SDS011;6454;43.304;24.344;2023-03-01T11:16:28;18.27;;;14.37;;
12780;SDS011;6454;43.304;24.344;2023-03-01T11:18:59;17.37;;;14.27;;
12780;SDS011;6454;43.304;24.344;2023-03-01T11:21:35;17.93;;;13.40;;
12780;SDS011;6454;43.304;24.344;2023-03-01T11:24:09;18.37;;;12.70;;
12780;SDS011;6454;43.304;24.344;2023-03-01T11:26:39;20.67;;;14.30;;
12780;SDS011;6454;43.304;24.344;2023-03-01T11:29:12;18.77;;;14.73;;
12780;SDS011;6454;43.304;24.344;2023-03-01T11:31:48;17.80;;;15.33;;
12780;SDS011;6454;43.304;24.344;2023-03-01T11:34:17;19.13;;;15.40;;
12780;SDS011;6454;43.304;24.344;2023-03-01T11:36:51;16.50;;;13.77;;
12780;SDS011;6454;43.304;24.344;2023-03-01T11:39:25;16.53;;;13.03;;
12780;SDS011;6454;43.304;24.344;2023-03-01T11:42:00;17.70;;;13.27;;
12780;SDS011;6454;43.304;24.344;2023-03-01T11:44:33;16.73;;;13.30;;
12780;SDS011;6454;43.304;24.344;2023-03-01T11:47:15;17.43;;;13.27;;
12780;SDS011;6454;43.304;24.344;2023-03-01T11:50:01;16.13;;;12.73;;
12780;SDS011;6454;43.304;24.344;2023-03-01T11:52:40;16.08;;;12.57;;
12780;SDS011;6454;43.304;24.344;2023-03-01T11:55:25;17.00;;;12.80;;
12780;SDS011;6454;43.304;24.344;2023-03-01T12:01:03;16.53;;;12.90;;
12780;SDS011;6454;43.304;24.344;2023-03-01T12:03:45;16.13;;;12.48;;
12780;SDS011;6454;43.304;24.344;2023-03-01T12:06:31;14.55;;;11.65;;
12780;SDS011;6454;43.304;24.344;2023-03-01T12:09:21;15.50;;;12.57;;
12780;SDS011;6454;43.304;24.344;2023-03-01T12:14:58;14.57;;;12.00;;
12780;SDS011;6454;43.304;24.344;2023-03-01T12:17:52;14.98;;;12.07;;
12780;SDS011;6454;43.304;24.344;2023-03-01T12:20:36;16.13;;;11.80;;
12780;SDS011;6454;43.304;24.344;2023-03-01T12:23:21;14.77;;;11.87;;
12780;SDS011;6454;43.304;24.344;2023-03-01T12:26:00;18.13;;;13.75;;
12780;SDS011;6454;43.304;24.344;2023-03-01T12:28:38;16.00;;;11.73;;
12780;SDS011;6454;43.304;24.344;2023-03-01T12:31:32;15.73;;;13.00;;
12780;SDS011;6454;43.304;24.344;2023-03-01T12:34:22;17.50;;;13.63;;
12780;SDS011;6454;43.304;24.344;2023-03-01T12:37:12;17.20;;;14.30;;
12780;SDS011;6454;43.304;24.344;2023-03-01T12:39:51;17.05;;;14.20;;
12780;SDS011;6454;43.304;24.344;2023-03-01T12:42:42;13.38;;;10.90;;
12780;SDS011;6454;43.304;24.344;2023-03-01T12:45:34;14.65;;;11.45;;
12780;SDS011;6454;43.304;24.344;2023-03-01T12:48:18;13.75;;;10.95;;
12780;SDS011;6454;43.304;24.344;2023-03-01T12:50:55;12.07;;;10.40;;
12780;SDS011;6454;43.304;24.344;2023-03-01T12:53:29;16.65;;;11.73;;
12780;SDS011;6454;43.304;24.344;2023-03-01T12:56:01;19.80;;;17.80;;
12780;SDS011;6454;43.304;24.344;2023-03-01T12:58:32;14.95;;;11.63;;
12780;SDS011;6454;43.304;24.344;2023-03-01T13:01:13;14.02;;;11.82;;
12780;SDS011;6454;43.304;24.344;2023-03-01T13:06:38;14.23;;;11.27;;
12780;SDS011;6454;43.304;24.344;2023-03-01T13:09:14;13.85;;;11.32;;
12780;SDS011;6454;43.304;24.344;2023-03-01T13:11:46;16.60;;;12.80;;
12780;SDS011;6454;43.304;24.344;2023-03-01T13:17:07;14.27;;;10.45;;
12780;SDS011;6454;43.304;24.344;2023-03-01T13:23:00;15.40;;;11.05;;
12780;SDS011;6454;43.304;24.344;2023-03-01T13:25:29;16.05;;;12.00;;
12780;SDS011;6454;43.304;24.344;2023-03-01T13:28:32;15.30;;;11.93;;
12780;SDS011;6454;43.304;24.344;2023-03-01T13:31:06;17.13;;;11.77;;
12780;SDS011;6454;43.304;24.344;2023-03-01T13:33:39;16.42;;;12.68;;
12780;SDS011;6454;43.304;24.344;2023-03-01T13:36:09;16.67;;;10.90;;
12780;SDS011;6454;43.304;24.344;2023-03-01T13:38:45;15.27;;;12.20;;
12780;SDS011;6454;43.304;24.344;2023-03-01T13:41:14;16.25;;;11.07;;
12780;SDS011;6454;43.304;24.344;2023-03-01T13:43:42;15.53;;;11.53;;
12780;SDS011;6454;43.304;24.344;2023-03-01T13:46:11;14.43;;;11.18;;
12780;SDS011;6454;43.304;24.344;2023-03-01T13:48:43;13.45;;;10.20;;
12780;SDS011;6454;43.304;24.344;2023-03-01T13:51:13;15.15;;;11.40;;
12780;SDS011;6454;43.304;24.344;2023-03-01T13:53:41;15.55;;;11.32;;
12780;SDS011;6454;43.304;24.344;2023-03-01T13:56:11;15.30;;;11.77;;
12780;SDS011;6454;43.304;24.344;2023-03-01T13:58:46;16.80;;;12.07;;
12780;SDS011;6454;43.304;24.344;2023-03-01T14:01:23;16.90;;;12.05;;
12780;SDS011;6454;43.304;24.344;2023-03-01T14:03:52;16.33;;;12.65;;
12780;SDS011;6454;43.304;24.344;2023-03-01T14:06:21;16.85;;;12.30;;
12780;SDS011;6454;43.304;24.344;2023-03-01T14:08:50;15.60;;;11.02;;
12780;SDS011;6454;43.304;24.344;2023-03-01T14:14:27;15.25;;;11.68;;
12780;SDS011;6454;43.304;24.344;2023-03-01T14:17:07;18.25;;;12.93;;
12780;SDS011;6454;43.304;24.344;2023-03-01T14:19:54;23.02;;;19.48;;
12780;SDS011;6454;43.304;24.344;2023-03-01T14:22:24;19.20;;;15.82;;
12780;SDS011;6454;43.304;24.344;2023-03-01T14:24:54;15.57;;;12.63;;
12780;SDS011;6454;43.304;24.344;2023-03-01T14:27:25;17.83;;;13.30;;
12780;SDS011;6454;43.304;24.344;2023-03-01T14:29:55;16.92;;;13.05;;
12780;SDS011;6454;43.304;24.344;2023-03-01T14:32:24;16.65;;;13.52;;
12780;SDS011;6454;43.304;24.344;2023-03-01T14:34:53;19.88;;;14.13;;
12780;SDS011;6454;43.304;24.344;2023-03-01T14:37:20;16.55;;;14.02;;
12780;SDS011;6454;43.304;24.344;2023-03-01T14:39:50;19.27;;;13.77;;
12780;SDS011;6454;43.304;24.344;2023-03-01T14:42:17;15.25;;;12.20;;
12780;SDS011;6454;43.304;24.344;2023-03-01T14:44:47;16.33;;;13.65;;
12780;SDS011;6454;43.304;24.344;2023-03-01T14:47:25;17.70;;;14.20;;
12780;SDS011;6454;43.304;24.344;2023-03-01T14:49:56;17.20;;;13.45;;
12780;SDS011;6454;43.304;24.344;2023-03-01T14:52:27;17.13;;;12.98;;
12780;SDS011;6454;43.304;24.344;2023-03-01T14:55:02;16.70;;;11.63;;
12780;SDS011;6454;43.304;24.344;2023-03-01T14:57:31;15.73;;;12.07;;
12780;SDS011;6454;43.304;24.344;2023-03-01T14:59:58;17.73;;;13.00;;
12780;SDS011;6454;43.304;24.344;2023-03-01T15:02:30;14.40;;;12.10;;
12780;SDS011;6454;43.304;24.344;2023-03-01T15:05:00;16.27;;;11.48;;
12780;SDS011;6454;43.304;24.344;2023-03-01T15:07:30;16.33;;;12.18;;
12780;SDS011;6454;43.304;24.344;2023-03-01T15:10:00;16.70;;;11.45;;
12780;SDS011;6454;43.304;24.344;2023-03-01T15:12:37;15.63;;;11.73;;
12780;SDS011;6454;43.304;24.344;2023-03-01T15:18:06;18.13;;;13.75;;
12780;SDS011;6454;43.304;24.344;2023-03-01T15:20:41;20.20;;;15.23;;
12780;SDS011;6454;43.304;24.344;2023-03-01T15:23:16;17.15;;;13.18;;
12780;SDS011;6454;43.304;24.344;2023-03-01T15:25:48;16.30;;;12.10;;
12780;SDS011;6454;43.304;24.344;2023-03-01T15:28:22;15.85;;;12.45;;
12780;SDS011;6454;43.304;24.344;2023-03-01T15:30:52;18.17;;;13.70;;
12780;SDS011;6454;43.304;24.344;2023-03-01T15:33:28;17.10;;;12.82;;
12780;SDS011;6454;43.304;24.344;2023-03-01T15:35:57;16.25;;;13.15;;
12780;SDS011;6454;43.304;24.344;2023-03-01T15:38:25;15.40;;;13.07;;
12780;SDS011;6454;43.304;24.344;2023-03-01T15:40:55;18.73;;;13.23;;
12780;SDS011;6454;43.304;24.344;2023-03-01T15:43:38;19.15;;;13.35;;
12780;SDS011;6454;43.304;24.344;2023-03-01T15:46:21;21.45;;;14.48;;
12780;SDS011;6454;43.304;24.344;2023-03-01T15:48:52;20.50;;;14.60;;
12780;SDS011;6454;43.304;24.344;2023-03-01T15:51:29;23.55;;;16.55;;
12780;SDS011;6454;43.304;24.344;2023-03-01T15:54:00;22.63;;;15.43;;
12780;SDS011;6454;43.304;24.344;2023-03-01T15:56:31;20.45;;;14.55;;
12780;SDS011;6454;43.304;24.344;2023-03-01T15:58:59;21.00;;;13.67;;
12780;SDS011;6454;43.304;24.344;2023-03-01T16:01:27;23.13;;;14.80;;
12780;SDS011;6454;43.304;24.344;2023-03-01T16:03:54;31.98;;;18.77;;
12780;SDS011;6454;43.304;24.344;2023-03-01T16:06:23;37.85;;;23.15;;
12780;SDS011;6454;43.304;24.344;2023-03-01T16:08:50;24.33;;;15.60;;
12780;SDS011;6454;43.304;24.344;2023-03-01T16:11:18;29.77;;;22.17;;
12780;SDS011;6454;43.304;24.344;2023-03-01T16:13:47;31.67;;;22.95;;
12780;SDS011;6454;43.304;24.344;2023-03-01T16:16:15;25.58;;;18.77;;
12780;SDS011;6454;43.304;24.344;2023-03-01T16:18:42;21.27;;;17.70;;
12780;SDS011;6454;43.304;24.344;2023-03-01T16:21:11;23.73;;;17.50;;
12780;SDS011;6454;43.304;24.344;2023-03-01T16:23:40;26.08;;;18.13;;
12780;SDS011;6454;43.304;24.344;2023-03-01T16:26:08;21.75;;;14.95;;
12780;SDS011;6454;43.304;24.344;2023-03-01T16:28:35;17.98;;;14.43;;
12780;SDS011;6454;43.304;24.344;2023-03-01T16:31:03;17.23;;;13.55;;
12780;SDS011;6454;43.304;24.344;2023-03-01T16:33:30;20.48;;;14.20;;
12780;SDS011;6454;43.304;24.344;2023-03-01T16:35:59;18.40;;;13.95;;
12780;SDS011;6454;43.304;24.344;2023-03-01T16:38:27;18.35;;;13.82;;
12780;SDS011;6454;43.304;24.344;2023-03-01T16:40:54;23.17;;;14.52;;
12780;SDS011;6454;43.304;24.344;2023-03-01T16:43:21;18.17;;;14.20;;
12780;SDS011;6454;43.304;24.344;2023-03-01T16:45:48;18.25;;;14.60;;
12780;SDS011;6454;43.304;24.344;2023-03-01T16:48:16;20.83;;;15.23;;
12780;SDS011;6454;43.304;24.344;2023-03-01T16:50:43;17.67;;;14.27;;
12780;SDS011;6454;43.304;24.344;2023-03-01T16:53:10;20.85;;;15.05;;
12780;SDS011;6454;43.304;24.344;2023-03-01T16:55:37;19.42;;;15.82;;
12780;SDS011;6454;43.304;24.344;2023-03-01T16:58:10;21.48;;;15.82;;
12780;SDS011;6454;43.304;24.344;2023-03-01T17:00:37;21.85;;;15.43;;
12780;SDS011;6454;43.304;24.344;2023-03-01T17:03:03;22.00;;;16.02;;
12780;SDS011;6454;43.304;24.344;2023-03-01T17:05:31;21.52;;;16.25;;
12780;SDS011;6454;43.304;24.344;2023-03-01T17:07:58;24.42;;;17.42;;
12780;SDS011;6454;43.304;24.344;2023-03-01T17:10:25;24.50;;;17.40;;
12780;SDS011;6454;43.304;24.344;2023-03-01T17:12:52;23.55;;;16.88;;
12780;SDS011;6454;43.304;24.344;2023-03-01T17:15:18;21.15;;;16.52;;
12780;SDS011;6454;43.304;24.344;2023-03-01T17:17:45;20.73;;;15.75;;
12780;SDS011;6454;43.304;24.344;2023-03-01T17:20:15;23.13;;;16.58;;
12780;SDS011;6454;43.304;24.344;2023-03-01T17:22:44;20.73;;;15.82;;
12780;SDS011;6454;43.304;24.344;2023-03-01T17:25:11;23.25;;;17.45;;
12780;SDS011;6454;43.304;24.344;2023-03-01T17:27:38;22.05;;;16.70;;
12780;SDS011;6454;43.304;24.344;2023-03-01T17:30:06;20.83;;;16.73;;
12780;SDS011;6454;43.304;24.344;2023-03-01T17:32:34;22.13;;;15.80;;
12780;SDS011;6454;43.304;24.344;2023-03-01T17:35:01;22.45;;;16.50;;
12780;SDS011;6454;43.304;24.344;2023-03-01T17:37:28;24.40;;;17.40;;
12780;SDS011;6454;43.304;24.344;2023-03-01T17:39:57;24.37;;;17.43;;
12780;SDS011;6454;43.304;24.344;2023-03-01T17:42:23;24.38;;;17.10;;
12780;SDS011;6454;43.304;24.344;2023-03-01T17:44:50;23.35;;;18.38;;
12780;SDS011;6454;43.304;24.344;2023-03-01T17:47:17;25.30;;;17.48;;
12780;SDS011;6454;43.304;24.344;2023-03-01T17:49:44;19.93;;;15.47;;
12780;SDS011;6454;43.304;24.344;2023-03-01T17:52:11;22.95;;;16.73;;
12780;SDS011;6454;43.304;24.344;2023-03-01T17:54:38;22.13;;;16.02;;
12780;SDS011;6454;43.304;24.344;2023-03-01T17:57:06;22.15;;;16.00;;
12780;SDS011;6454;43.304;24.344;2023-03-01T17:59:34;22.20;;;16.00;;
12780;SDS011;6454;43.304;24.344;2023-03-01T18:02:01;23.58;;;17.48;;
12780;SDS011;6454;43.304;24.344;2023-03-01T18:04:28;23.38;;;18.42;;
12780;SDS011;6454;43.304;24.344;2023-03-01T18:06:56;23.27;;;18.10;;
12780;SDS011;6454;43.304;24.344;2023-03-01T18:09:25;26.73;;;18.63;;
12780;SDS011;6454;43.304;24.344;2023-03-01T18:11:52;24.67;;;17.92;;
12780;SDS011;6454;43.304;24.344;2023-03-01T18:14:20;25.20;;;18.13;;
12780;SDS011;6454;43.304;24.344;2023-03-01T18:16:48;25.23;;;18.50;;
12780;SDS011;6454;43.304;24.344;2023-03-01T18:19:14;25.20;;;18.27;;
12780;SDS011;6454;43.304;24.344;2023-03-01T18:21:41;25.02;;;19.10;;
12780;SDS011;6454;43.304;24.344;2023-03-01T18:24:08;24.83;;;18.10;;
12780;SDS011;6454;43.304;24.344;2023-03-01T18:26:35;22.55;;;17.92;;
12780;SDS011;6454;43.304;24.344;2023-03-01T18:29:02;26.60;;;18.92;;
12780;SDS011;6454;43.304;24.344;2023-03-01T18:31:30;24.67;;;19.07;;
12780;SDS011;6454;43.304;24.344;2023-03-01T18:33:57;25.65;;;18.10;;
12780;SDS011;6454;43.304;24.344;2023-03-01T18:36:26;24.40;;;18.25;;
12780;SDS011;6454;43.304;24.344;2023-03-01T18:38:54;28.75;;;18.40;;
12780;SDS011;6454;43.304;24.344;2023-03-01T18:41:22;25.88;;;18.38;;
12780;SDS011;6454;43.304;24.344;2023-03-01T18:43:50;28.27;;;17.92;;
12780;SDS011;6454;43.304;24.344;2023-03-01T18:46:17;26.95;;;19.23;;
12780;SDS011;6454;43.304;24.344;2023-03-01T18:48:46;23.98;;;18.90;;
12780;SDS011;6454;43.304;24.344;2023-03-01T18:51:14;24.85;;;18.98;;
12780;SDS011;6454;43.304;24.344;2023-03-01T18:53:42;27.57;;;19.13;;
12780;SDS011;6454;43.304;24.344;2023-03-01T18:56:10;25.73;;;18.70;;
12780;SDS011;6454;43.304;24.344;2023-03-01T18:58:38;28.13;;;20.02;;
12780;SDS011;6454;43.304;24.344;2023-03-01T19:01:10;25.25;;;18.80;;
12780;SDS011;6454;43.304;24.344;2023-03-01T19:03:39;29.00;;;20.65;;
12780;SDS011;6454;43.304;24.344;2023-03-01T19:06:07;25.50;;;19.40;;
12780;SDS011;6454;43.304;24.344;2023-03-01T19:08:34;26.52;;;20.85;;
12780;SDS011;6454;43.304;24.344;2023-03-01T19:11:02;29.35;;;21.50;;
12780;SDS011;6454;43.304;24.344;2023-03-01T19:13:30;28.27;;;20.33;;
12780;SDS011;6454;43.304;24.344;2023-03-01T19:16:03;29.10;;;19.58;;
12780;SDS011;6454;43.304;24.344;2023-03-01T19:18:31;26.10;;;18.48;;
12780;SDS011;6454;43.304;24.344;2023-03-01T19:20:58;24.98;;;17.27;;
12780;SDS011;6454;43.304;24.344;2023-03-01T19:23:28;27.77;;;17.70;;
12780;SDS011;6454;43.304;24.344;2023-03-01T19:25:59;26.08;;;18.15;;
12780;SDS011;6454;43.304;24.344;2023-03-01T19:28:27;26.17;;;17.70;;
12780;SDS011;6454;43.304;24.344;2023-03-01T19:30:57;24.90;;;17.23;;
12780;SDS011;6454;43.304;24.344;2023-03-01T19:33:26;25.73;;;19.13;;
12780;SDS011;6454;43.304;24.344;2023-03-01T19:35:53;29.25;;;19.90;;
12780;SDS011;6454;43.304;24.344;2023-03-01T19:38:20;28.10;;;18.77;;
12780;SDS011;6454;43.304;24.344;2023-03-01T19:40:49;30.60;;;19.27;;
12780;SDS011;6454;43.304;24.344;2023-03-01T19:43:16;28.67;;;18.27;;
12780;SDS011;6454;43.304;24.344;2023-03-01T19:45:43;27.15;;;19.85;;
12780;SDS011;6454;43.304;24.344;2023-03-01T19:48:11;25.48;;;18.42;;
12780;SDS011;6454;43.304;24.344;2023-03-01T19:50:38;29.17;;;18.58;;
12780;SDS011;6454;43.304;24.344;2023-03-01T19:53:04;30.50;;;19.90;;
12780;SDS011;6454;43.304;24.344;2023-03-01T19:55:34;33.37;;;20.20;;
12780;SDS011;6454;43.304;24.344;2023-03-01T19:58:03;29.45;;;19.98;;
12780;SDS011;6454;43.304;24.344;2023-03-01T20:00:30;28.73;;;19.20;;
12780;SDS011;6454;43.304;24.344;2023-03-01T20:02:57;34.80;;;20.50;;
12780;SDS011;6454;43.304;24.344;2023-03-01T20:05:23;32.90;;;20.53;;
12780;SDS011;6454;43.304;24.344;2023-03-01T20:07:53;35.13;;;20.80;;
12780;SDS011;6454;43.304;24.344;2023-03-01T20:10:21;32.88;;;20.95;;
12780;SDS011;6454;43.304;24.344;2023-03-01T20:12:50;33.70;;;20.70;;
12780;SDS011;6454;43.304;24.344;2023-03-01T20:15:18;34.05;;;20.65;;
12780;SDS011;6454;43.304;24.344;2023-03-01T20:17:45;35.15;;;20.52;;
12780;SDS011;6454;43.304;24.344;2023-03-01T20:20:12;29.83;;;19.85;;
12780;SDS011;6454;43.304;24.344;2023-03-01T20:22:39;35.45;;;22.15;;
12780;SDS011;6454;43.304;24.344;2023-03-01T20:25:07;32.58;;;21.38;;
12780;SDS011;6454;43.304;24.344;2023-03-01T20:27:34;40.78;;;21.48;;
12780;SDS011;6454;43.304;24.344;2023-03-01T20:30:01;32.28;;;21.00;;
12780;SDS011;6454;43.304;24.344;2023-03-01T20:34:59;36.10;;;19.90;;
12780;SDS011;6454;43.304;24.344;2023-03-01T20:37:27;35.92;;;21.75;;
12780;SDS011;6454;43.304;24.344;2023-03-01T20:39:53;30.77;;;21.27;;
12780;SDS011;6454;43.304;24.344;2023-03-01T20:42:20;35.53;;;21.33;;
12780;SDS011;6454;43.304;24.344;2023-03-01T20:44:47;38.07;;;21.77;;
12780;SDS011;6454;43.304;24.344;2023-03-01T20:47:14;34.70;;;19.67;;
12780;SDS011;6454;43.304;24.344;2023-03-01T20:49:42;33.22;;;20.23;;
12780;SDS011;6454;43.304;24.344;2023-03-01T20:52:09;37.88;;;22.52;;
12780;SDS011;6454;43.304;24.344;2023-03-01T20:54:36;36.07;;;21.20;;
12780;SDS011;6454;43.304;24.344;2023-03-01T20:57:02;35.70;;;22.00;;
12780;SDS011;6454;43.304;24.344;2023-03-01T20:59:29;35.03;;;21.52;;
12780;SDS011;6454;43.304;24.344;2023-03-01T21:01:56;36.97;;;22.08;;
12780;SDS011;6454;43.304;24.344;2023-03-01T21:04:23;37.65;;;22.02;;
12780;SDS011;6454;43.304;24.344;2023-03-01T21:06:51;32.90;;;21.50;;
12780;SDS011;6454;43.304;24.344;2023-03-01T21:09:18;31.58;;;21.23;;
12780;SDS011;6454;43.304;24.344;2023-03-01T21:11:44;32.35;;;21.38;;
12780;SDS011;6454;43.304;24.344;2023-03-01T21:14:14;32.70;;;21.33;;
12780;SDS011;6454;43.304;24.344;2023-03-01T21:16:41;34.03;;;21.80;;
12780;SDS011;6454;43.304;24.344;2023-03-01T21:19:09;33.53;;;21.40;;
12780;SDS011;6454;43.304;24.344;2023-03-01T21:21:36;39.17;;;25.23;;
12780;SDS011;6454;43.304;24.344;2023-03-01T21:24:05;36.20;;;24.30;;
12780;SDS011;6454;43.304;24.344;2023-03-01T21:26:34;35.75;;;22.05;;
12780;SDS011;6454;43.304;24.344;2023-03-01T21:29:01;39.40;;;23.93;;
12780;SDS011;6454;43.304;24.344;2023-03-01T21:31:29;39.70;;;25.23;;
12780;SDS011;6454;43.304;24.344;2023-03-01T21:33:58;46.25;;;34.90;;
12780;SDS011;6454;43.304;24.344;2023-03-01T21:36:28;48.22;;;32.03;;
12780;SDS011;6454;43.304;24.344;2023-03-01T21:38:57;45.88;;;31.80;;
12780;SDS011;6454;43.304;24.344;2023-03-01T21:41:27;39.87;;;28.90;;
12780;SDS011;6454;43.304;24.344;2023-03-01T21:43:55;44.83;;;25.90;;
12780;SDS011;6454;43.304;24.344;2023-03-01T21:46:32;33.17;;;23.00;;
12780;SDS011;6454;43.304;24.344;2023-03-01T21:49:01;33.33;;;21.02;;